sensor_id;sensor_type;location;lat;lon;timestamp;P1;durP1;ratioP1;P2;durP2;ratioP2
11123;SDS011;5616;42.692;23.312;2022-11-09T00:00:43;30.23;;;20.93;;
11123;SDS011;5616;42.692;23.312;2022-11-09T00:03:11;29.47;;;21.70;;
11123;SDS011;5616;42.692;23.312;2022-11-09T00:05:38;29.60;;;21.13;;
11123;SDS011;5616;42.692;23.312;2022-11-09T00:08:05;26.27;;;20.80;;
11123;SDS011;5616;42.692;23.312;2022-11-09T00:10:33;29.23;;;20.47;;
11123;SDS011;5616;42.692;23.312;2022-11-09T00:13:00;26.17;;;19.23;;
11123;SDS011;5616;42.692;23.312;2022-11-09T00:15:27;28.63;;;19.30;;
11123;SDS011;5616;42.692;23.312;2022-11-09T00:17:54;28.33;;;20.00;;
11123;SDS011;5616;42.692;23.312;2022-11-09T00:20:22;24.60;;;19.10;;
11123;SDS011;5616;42.692;23.312;2022-11-09T00:22:49;25.33;;;18.93;;
11123;SDS011;5616;42.692;23.312;2022-11-09T00:25:16;25.23;;;18.27;;
11123;SDS011;5616;42.692;23.312;2022-11-09T00:27:43;30.63;;;19.30;;
11123;SDS011;5616;42.692;23.312;2022-11-09T00:30:10;24.83;;;19.47;;
11123;SDS011;5616;42.692;23.312;2022-11-09T00:32:37;27.80;;;18.53;;
11123;SDS011;5616;42.692;23.312;2022-11-09T00:35:05;25.23;;;18.40;;
11123;SDS011;5616;42.692;23.312;2022-11-09T00:37:35;23.37;;;18.00;;
11123;SDS011;5616;42.692;23.312;2022-11-09T00:40:01;23.43;;;17.23;;
11123;SDS011;5616;42.692;23.312;2022-11-09T00:42:28;24.63;;;17.43;;
11123;SDS011;5616;42.692;23.312;2022-11-09T00:44:55;25.47;;;17.50;;
11123;SDS011;5616;42.692;23.312;2022-11-09T00:47:22;23.27;;;18.10;;
11123;SDS011;5616;42.692;23.312;2022-11-09T00:49:50;22.53;;;17.07;;
11123;SDS011;5616;42.692;23.312;2022-11-09T00:52:17;21.43;;;17.07;;
11123;SDS011;5616;42.692;23.312;2022-11-09T00:54:46;23.07;;;17.77;;
11123;SDS011;5616;42.692;23.312;2022-11-09T00:57:12;22.67;;;17.80;;
11123;SDS011;5616;42.692;23.312;2022-11-09T00:59:42;21.17;;;17.53;;
11123;SDS011;5616;42.692;23.312;2022-11-09T01:02:09;22.57;;;16.17;;
11123;SDS011;5616;42.692;23.312;2022-11-09T01:04:36;21.10;;;16.93;;
11123;SDS011;5616;42.692;23.312;2022-11-09T01:07:03;23.53;;;17.57;;
11123;SDS011;5616;42.692;23.312;2022-11-09T01:09:32;23.50;;;17.40;;
11123;SDS011;5616;42.692;23.312;2022-11-09T01:12:00;24.27;;;17.57;;
11123;SDS011;5616;42.692;23.312;2022-11-09T01:14:27;25.37;;;18.70;;
11123;SDS011;5616;42.692;23.312;2022-11-09T01:16:54;28.87;;;19.03;;
11123;SDS011;5616;42.692;23.312;2022-11-09T01:19:20;24.73;;;17.70;;
11123;SDS011;5616;42.692;23.312;2022-11-09T01:21:47;22.90;;;17.50;;
11123;SDS011;5616;42.692;23.312;2022-11-09T01:24:14;24.03;;;18.27;;
11123;SDS011;5616;42.692;23.312;2022-11-09T01:26:41;26.27;;;18.00;;
11123;SDS011;5616;42.692;23.312;2022-11-09T01:29:09;25.90;;;18.17;;
11123;SDS011;5616;42.692;23.312;2022-11-09T01:31:36;24.20;;;18.03;;
11123;SDS011;5616;42.692;23.312;2022-11-09T01:34:02;24.33;;;18.77;;
11123;SDS011;5616;42.692;23.312;2022-11-09T01:36:31;24.83;;;18.43;;
11123;SDS011;5616;42.692;23.312;2022-11-09T01:38:59;28.73;;;19.80;;
11123;SDS011;5616;42.692;23.312;2022-11-09T01:41:27;28.60;;;19.43;;
11123;SDS011;5616;42.692;23.312;2022-11-09T01:44:09;26.63;;;19.07;;
11123;SDS011;5616;42.692;23.312;2022-11-09T01:46:39;25.30;;;18.37;;
11123;SDS011;5616;42.692;23.312;2022-11-09T01:49:12;23.53;;;18.43;;
11123;SDS011;5616;42.692;23.312;2022-11-09T01:51:48;26.73;;;19.13;;
11123;SDS011;5616;42.692;23.312;2022-11-09T01:54:19;28.57;;;19.20;;
11123;SDS011;5616;42.692;23.312;2022-11-09T01:56:50;23.93;;;18.07;;
11123;SDS011;5616;42.692;23.312;2022-11-09T01:59:24;29.90;;;19.60;;
11123;SDS011;5616;42.692;23.312;2022-11-09T02:01:53;25.23;;;19.47;;
11123;SDS011;5616;42.692;23.312;2022-11-09T02:04:23;27.47;;;19.63;;
11123;SDS011;5616;42.692;23.312;2022-11-09T02:06:51;25.37;;;18.93;;
11123;SDS011;5616;42.692;23.312;2022-11-09T02:09:22;24.03;;;17.97;;
11123;SDS011;5616;42.692;23.312;2022-11-09T02:11:59;25.90;;;18.40;;
11123;SDS011;5616;42.692;23.312;2022-11-09T02:14:29;25.13;;;18.73;;
11123;SDS011;5616;42.692;23.312;2022-11-09T02:16:59;25.33;;;19.17;;
11123;SDS011;5616;42.692;23.312;2022-11-09T02:19:26;26.60;;;18.87;;
11123;SDS011;5616;42.692;23.312;2022-11-09T02:21:54;23.80;;;18.17;;
11123;SDS011;5616;42.692;23.312;2022-11-09T02:24:23;24.20;;;18.07;;
11123;SDS011;5616;42.692;23.312;2022-11-09T02:26:50;23.53;;;17.77;;
11123;SDS011;5616;42.692;23.312;2022-11-09T02:29:18;23.57;;;17.00;;
11123;SDS011;5616;42.692;23.312;2022-11-09T02:31:50;23.70;;;17.07;;
11123;SDS011;5616;42.692;23.312;2022-11-09T02:34:20;22.40;;;16.37;;
11123;SDS011;5616;42.692;23.312;2022-11-09T02:36:48;21.90;;;16.73;;
11123;SDS011;5616;42.692;23.312;2022-11-09T02:39:22;19.90;;;15.73;;
11123;SDS011;5616;42.692;23.312;2022-11-09T02:41:52;23.87;;;17.83;;
11123;SDS011;5616;42.692;23.312;2022-11-09T02:44:26;22.93;;;16.97;;
11123;SDS011;5616;42.692;23.312;2022-11-09T02:46:55;21.30;;;16.80;;
11123;SDS011;5616;42.692;23.312;2022-11-09T02:49:24;22.53;;;16.73;;
11123;SDS011;5616;42.692;23.312;2022-11-09T02:51:51;21.50;;;16.43;;
11123;SDS011;5616;42.692;23.312;2022-11-09T02:54:18;20.83;;;17.03;;
11123;SDS011;5616;42.692;23.312;2022-11-09T02:56:48;23.00;;;17.33;;
11123;SDS011;5616;42.692;23.312;2022-11-09T02:59:15;23.37;;;17.33;;
11123;SDS011;5616;42.692;23.312;2022-11-09T03:01:42;22.83;;;16.73;;
11123;SDS011;5616;42.692;23.312;2022-11-09T03:04:09;23.20;;;17.50;;
11123;SDS011;5616;42.692;23.312;2022-11-09T03:06:36;24.17;;;18.20;;
11123;SDS011;5616;42.692;23.312;2022-11-09T03:09:10;21.80;;;16.57;;
11123;SDS011;5616;42.692;23.312;2022-11-09T03:11:38;23.50;;;17.80;;
11123;SDS011;5616;42.692;23.312;2022-11-09T03:14:09;23.57;;;17.53;;
11123;SDS011;5616;42.692;23.312;2022-11-09T03:16:38;23.80;;;17.83;;
11123;SDS011;5616;42.692;23.312;2022-11-09T03:19:05;24.67;;;18.87;;
11123;SDS011;5616;42.692;23.312;2022-11-09T03:21:33;23.33;;;17.70;;
11123;SDS011;5616;42.692;23.312;2022-11-09T03:24:00;23.77;;;18.27;;
11123;SDS011;5616;42.692;23.312;2022-11-09T03:26:27;24.77;;;18.33;;
11123;SDS011;5616;42.692;23.312;2022-11-09T03:28:54;25.20;;;17.73;;
11123;SDS011;5616;42.692;23.312;2022-11-09T03:31:23;28.00;;;18.60;;
11123;SDS011;5616;42.692;23.312;2022-11-09T03:33:51;24.23;;;16.83;;
11123;SDS011;5616;42.692;23.312;2022-11-09T03:36:18;23.07;;;17.40;;
11123;SDS011;5616;42.692;23.312;2022-11-09T03:38:45;20.83;;;16.23;;
11123;SDS011;5616;42.692;23.312;2022-11-09T03:41:12;22.63;;;16.87;;
11123;SDS011;5616;42.692;23.312;2022-11-09T03:43:39;22.37;;;17.30;;
11123;SDS011;5616;42.692;23.312;2022-11-09T03:46:05;24.97;;;17.57;;
11123;SDS011;5616;42.692;23.312;2022-11-09T03:48:34;24.47;;;17.77;;
11123;SDS011;5616;42.692;23.312;2022-11-09T03:51:00;24.13;;;18.20;;
11123;SDS011;5616;42.692;23.312;2022-11-09T03:53:27;23.33;;;17.97;;
11123;SDS011;5616;42.692;23.312;2022-11-09T03:55:55;21.87;;;17.17;;
11123;SDS011;5616;42.692;23.312;2022-11-09T03:58:22;23.77;;;17.23;;
11123;SDS011;5616;42.692;23.312;2022-11-09T04:00:49;22.93;;;17.33;;
11123;SDS011;5616;42.692;23.312;2022-11-09T04:03:16;24.92;;;18.77;;
11123;SDS011;5616;42.692;23.312;2022-11-09T04:05:44;25.10;;;18.17;;
11123;SDS011;5616;42.692;23.312;2022-11-09T04:08:11;24.40;;;17.93;;
11123;SDS011;5616;42.692;23.312;2022-11-09T04:10:38;23.47;;;18.10;;
11123;SDS011;5616;42.692;23.312;2022-11-09T04:13:04;22.07;;;16.50;;
11123;SDS011;5616;42.692;23.312;2022-11-09T04:15:31;22.87;;;16.80;;
11123;SDS011;5616;42.692;23.312;2022-11-09T04:17:58;23.83;;;20.83;;
11123;SDS011;5616;42.692;23.312;2022-11-09T04:20:27;22.80;;;17.73;;
11123;SDS011;5616;42.692;23.312;2022-11-09T04:22:58;23.37;;;17.70;;
11123;SDS011;5616;42.692;23.312;2022-11-09T04:25:25;23.40;;;17.57;;
11123;SDS011;5616;42.692;23.312;2022-11-09T04:27:54;27.67;;;17.80;;
11123;SDS011;5616;42.692;23.312;2022-11-09T04:30:21;24.57;;;18.13;;
11123;SDS011;5616;42.692;23.312;2022-11-09T04:32:48;24.00;;;17.77;;
11123;SDS011;5616;42.692;23.312;2022-11-09T04:35:15;24.07;;;17.87;;
11123;SDS011;5616;42.692;23.312;2022-11-09T04:37:42;25.47;;;17.87;;
11123;SDS011;5616;42.692;23.312;2022-11-09T04:40:11;23.37;;;17.53;;
11123;SDS011;5616;42.692;23.312;2022-11-09T04:42:38;25.70;;;17.87;;
11123;SDS011;5616;42.692;23.312;2022-11-09T04:45:05;22.20;;;17.20;;
11123;SDS011;5616;42.692;23.312;2022-11-09T04:47:32;22.93;;;16.97;;
11123;SDS011;5616;42.692;23.312;2022-11-09T04:49:59;26.73;;;18.67;;
11123;SDS011;5616;42.692;23.312;2022-11-09T04:52:26;24.00;;;17.30;;
11123;SDS011;5616;42.692;23.312;2022-11-09T04:54:53;22.73;;;17.57;;
11123;SDS011;5616;42.692;23.312;2022-11-09T04:57:21;28.80;;;18.77;;
11123;SDS011;5616;42.692;23.312;2022-11-09T04:59:48;23.60;;;17.00;;
11123;SDS011;5616;42.692;23.312;2022-11-09T05:02:14;25.77;;;17.93;;
11123;SDS011;5616;42.692;23.312;2022-11-09T05:04:41;27.73;;;17.70;;
11123;SDS011;5616;42.692;23.312;2022-11-09T05:07:08;26.50;;;18.67;;
11123;SDS011;5616;42.692;23.312;2022-11-09T05:09:35;23.93;;;18.40;;
11123;SDS011;5616;42.692;23.312;2022-11-09T05:12:02;28.60;;;18.90;;
11123;SDS011;5616;42.692;23.312;2022-11-09T05:14:30;22.60;;;18.27;;
11123;SDS011;5616;42.692;23.312;2022-11-09T05:16:57;23.30;;;17.80;;
11123;SDS011;5616;42.692;23.312;2022-11-09T05:19:23;27.80;;;18.70;;
11123;SDS011;5616;42.692;23.312;2022-11-09T05:21:50;27.40;;;18.77;;
11123;SDS011;5616;42.692;23.312;2022-11-09T05:24:17;26.13;;;18.83;;
11123;SDS011;5616;42.692;23.312;2022-11-09T05:26:43;25.57;;;18.93;;
11123;SDS011;5616;42.692;23.312;2022-11-09T05:29:10;27.07;;;19.83;;
11123;SDS011;5616;42.692;23.312;2022-11-09T05:31:39;25.60;;;20.23;;
11123;SDS011;5616;42.692;23.312;2022-11-09T05:34:09;25.20;;;18.93;;
11123;SDS011;5616;42.692;23.312;2022-11-09T05:36:38;22.63;;;18.43;;
11123;SDS011;5616;42.692;23.312;2022-11-09T05:39:05;23.30;;;19.10;;
11123;SDS011;5616;42.692;23.312;2022-11-09T05:41:31;28.60;;;19.50;;
11123;SDS011;5616;42.692;23.312;2022-11-09T05:43:58;27.60;;;19.33;;
11123;SDS011;5616;42.692;23.312;2022-11-09T05:46:25;26.10;;;19.93;;
11123;SDS011;5616;42.692;23.312;2022-11-09T05:48:53;26.37;;;19.30;;
11123;SDS011;5616;42.692;23.312;2022-11-09T05:51:20;30.97;;;20.67;;
11123;SDS011;5616;42.692;23.312;2022-11-09T05:53:46;28.77;;;19.50;;
11123;SDS011;5616;42.692;23.312;2022-11-09T05:56:13;27.73;;;20.03;;
11123;SDS011;5616;42.692;23.312;2022-11-09T05:58:40;25.17;;;19.33;;
11123;SDS011;5616;42.692;23.312;2022-11-09T06:01:08;26.13;;;18.90;;
11123;SDS011;5616;42.692;23.312;2022-11-09T06:03:37;29.30;;;19.67;;
11123;SDS011;5616;42.692;23.312;2022-11-09T06:06:06;28.07;;;20.17;;
11123;SDS011;5616;42.692;23.312;2022-11-09T06:08:33;29.43;;;19.07;;
11123;SDS011;5616;42.692;23.312;2022-11-09T06:11:02;27.47;;;19.23;;
11123;SDS011;5616;42.692;23.312;2022-11-09T06:13:30;27.53;;;20.07;;
11123;SDS011;5616;42.692;23.312;2022-11-09T06:15:58;26.33;;;20.13;;
11123;SDS011;5616;42.692;23.312;2022-11-09T06:18:27;30.80;;;20.00;;
11123;SDS011;5616;42.692;23.312;2022-11-09T06:20:56;30.17;;;19.17;;
11123;SDS011;5616;42.692;23.312;2022-11-09T06:23:25;26.60;;;19.50;;
11123;SDS011;5616;42.692;23.312;2022-11-09T06:25:55;28.20;;;19.60;;
11123;SDS011;5616;42.692;23.312;2022-11-09T06:28:23;28.50;;;20.13;;
11123;SDS011;5616;42.692;23.312;2022-11-09T06:30:50;29.93;;;19.17;;
11123;SDS011;5616;42.692;23.312;2022-11-09T06:33:17;24.37;;;18.73;;
11123;SDS011;5616;42.692;23.312;2022-11-09T06:35:43;29.50;;;20.37;;
11123;SDS011;5616;42.692;23.312;2022-11-09T06:38:10;27.10;;;19.10;;
11123;SDS011;5616;42.692;23.312;2022-11-09T06:40:38;29.00;;;20.93;;
11123;SDS011;5616;42.692;23.312;2022-11-09T06:43:05;27.33;;;19.40;;
11123;SDS011;5616;42.692;23.312;2022-11-09T06:45:32;27.23;;;19.70;;
11123;SDS011;5616;42.692;23.312;2022-11-09T06:48:02;26.73;;;20.33;;
11123;SDS011;5616;42.692;23.312;2022-11-09T06:50:31;28.97;;;19.83;;
11123;SDS011;5616;42.692;23.312;2022-11-09T06:52:59;31.77;;;20.30;;
11123;SDS011;5616;42.692;23.312;2022-11-09T06:55:27;33.37;;;20.23;;
11123;SDS011;5616;42.692;23.312;2022-11-09T06:57:56;29.13;;;20.60;;
11123;SDS011;5616;42.692;23.312;2022-11-09T07:00:24;28.87;;;20.43;;
11123;SDS011;5616;42.692;23.312;2022-11-09T07:02:52;28.63;;;20.70;;
11123;SDS011;5616;42.692;23.312;2022-11-09T07:05:19;30.87;;;21.43;;
11123;SDS011;5616;42.692;23.312;2022-11-09T07:07:46;31.23;;;21.73;;
11123;SDS011;5616;42.692;23.312;2022-11-09T07:10:14;27.87;;;20.90;;
11123;SDS011;5616;42.692;23.312;2022-11-09T07:12:41;33.57;;;21.73;;
11123;SDS011;5616;42.692;23.312;2022-11-09T07:15:10;27.47;;;20.83;;
11123;SDS011;5616;42.692;23.312;2022-11-09T07:17:37;28.60;;;21.23;;
11123;SDS011;5616;42.692;23.312;2022-11-09T07:20:06;30.93;;;21.10;;
11123;SDS011;5616;42.692;23.312;2022-11-09T07:22:34;28.13;;;21.87;;
11123;SDS011;5616;42.692;23.312;2022-11-09T07:25:04;34.47;;;21.20;;
11123;SDS011;5616;42.692;23.312;2022-11-09T07:27:31;28.97;;;22.10;;
11123;SDS011;5616;42.692;23.312;2022-11-09T07:29:58;31.17;;;21.83;;
11123;SDS011;5616;42.692;23.312;2022-11-09T07:32:26;29.77;;;22.10;;
11123;SDS011;5616;42.692;23.312;2022-11-09T07:34:53;31.33;;;22.23;;
11123;SDS011;5616;42.692;23.312;2022-11-09T07:37:20;33.90;;;21.90;;
11123;SDS011;5616;42.692;23.312;2022-11-09T07:39:47;30.83;;;22.63;;
11123;SDS011;5616;42.692;23.312;2022-11-09T07:42:13;31.23;;;23.60;;
11123;SDS011;5616;42.692;23.312;2022-11-09T07:44:40;29.77;;;23.10;;
11123;SDS011;5616;42.692;23.312;2022-11-09T07:47:07;27.00;;;21.97;;
11123;SDS011;5616;42.692;23.312;2022-11-09T07:49:35;31.07;;;23.37;;
11123;SDS011;5616;42.692;23.312;2022-11-09T07:52:02;33.73;;;23.73;;
11123;SDS011;5616;42.692;23.312;2022-11-09T07:54:29;31.00;;;22.93;;
11123;SDS011;5616;42.692;23.312;2022-11-09T07:56:56;32.10;;;23.27;;
11123;SDS011;5616;42.692;23.312;2022-11-09T07:59:23;28.97;;;22.07;;
11123;SDS011;5616;42.692;23.312;2022-11-09T08:01:50;36.97;;;22.63;;
11123;SDS011;5616;42.692;23.312;2022-11-09T08:04:16;34.00;;;22.67;;
11123;SDS011;5616;42.692;23.312;2022-11-09T08:06:45;32.17;;;22.77;;
11123;SDS011;5616;42.692;23.312;2022-11-09T08:09:11;38.23;;;23.67;;
11123;SDS011;5616;42.692;23.312;2022-11-09T08:11:38;36.97;;;23.23;;
11123;SDS011;5616;42.692;23.312;2022-11-09T08:14:05;30.53;;;23.53;;
11123;SDS011;5616;42.692;23.312;2022-11-09T08:16:32;33.63;;;24.10;;
11123;SDS011;5616;42.692;23.312;2022-11-09T08:18:58;33.60;;;24.30;;
11123;SDS011;5616;42.692;23.312;2022-11-09T08:21:25;29.50;;;23.90;;
11123;SDS011;5616;42.692;23.312;2022-11-09T08:23:53;32.33;;;24.03;;
11123;SDS011;5616;42.692;23.312;2022-11-09T08:26:20;31.03;;;24.03;;
11123;SDS011;5616;42.692;23.312;2022-11-09T08:28:47;32.83;;;23.47;;
11123;SDS011;5616;42.692;23.312;2022-11-09T08:31:14;30.67;;;23.03;;
11123;SDS011;5616;42.692;23.312;2022-11-09T08:33:41;30.83;;;22.90;;
11123;SDS011;5616;42.692;23.312;2022-11-09T08:36:08;32.90;;;23.93;;
11123;SDS011;5616;42.692;23.312;2022-11-09T08:38:36;32.17;;;24.33;;
11123;SDS011;5616;42.692;23.312;2022-11-09T08:41:04;31.67;;;24.23;;
11123;SDS011;5616;42.692;23.312;2022-11-09T08:43:31;32.93;;;24.63;;
11123;SDS011;5616;42.692;23.312;2022-11-09T08:45:58;29.23;;;23.87;;
11123;SDS011;5616;42.692;23.312;2022-11-09T08:48:25;29.37;;;23.57;;
11123;SDS011;5616;42.692;23.312;2022-11-09T08:50:52;33.27;;;23.27;;
11123;SDS011;5616;42.692;23.312;2022-11-09T08:53:19;33.17;;;23.37;;
11123;SDS011;5616;42.692;23.312;2022-11-09T08:55:46;30.63;;;22.93;;
11123;SDS011;5616;42.692;23.312;2022-11-09T08:58:14;32.20;;;23.73;;
11123;SDS011;5616;42.692;23.312;2022-11-09T09:00:41;35.27;;;23.83;;
11123;SDS011;5616;42.692;23.312;2022-11-09T09:03:08;29.97;;;23.73;;
11123;SDS011;5616;42.692;23.312;2022-11-09T09:05:35;30.03;;;23.70;;
11123;SDS011;5616;42.692;23.312;2022-11-09T09:08:03;30.37;;;23.93;;
11123;SDS011;5616;42.692;23.312;2022-11-09T09:10:30;33.27;;;23.70;;
11123;SDS011;5616;42.692;23.312;2022-11-09T09:12:59;36.43;;;24.07;;
11123;SDS011;5616;42.692;23.312;2022-11-09T09:15:28;33.43;;;23.37;;
11123;SDS011;5616;42.692;23.312;2022-11-09T09:17:55;30.67;;;23.47;;
11123;SDS011;5616;42.692;23.312;2022-11-09T09:20:24;56.03;;;26.23;;
11123;SDS011;5616;42.692;23.312;2022-11-09T09:22:50;35.93;;;25.10;;
11123;SDS011;5616;42.692;23.312;2022-11-09T09:25:17;37.67;;;26.17;;
11123;SDS011;5616;42.692;23.312;2022-11-09T09:27:44;30.97;;;25.33;;
11123;SDS011;5616;42.692;23.312;2022-11-09T09:30:11;35.33;;;25.63;;
11123;SDS011;5616;42.692;23.312;2022-11-09T09:32:40;31.30;;;25.03;;
11123;SDS011;5616;42.692;23.312;2022-11-09T09:35:07;34.60;;;25.83;;
11123;SDS011;5616;42.692;23.312;2022-11-09T09:37:34;32.97;;;26.17;;
11123;SDS011;5616;42.692;23.312;2022-11-09T09:40:01;33.43;;;25.30;;
11123;SDS011;5616;42.692;23.312;2022-11-09T09:42:29;37.20;;;27.03;;
11123;SDS011;5616;42.692;23.312;2022-11-09T09:45:01;35.77;;;25.10;;
11123;SDS011;5616;42.692;23.312;2022-11-09T09:47:35;36.47;;;26.50;;
11123;SDS011;5616;42.692;23.312;2022-11-09T09:50:12;33.93;;;26.70;;
11123;SDS011;5616;42.692;23.312;2022-11-09T09:52:45;63.97;;;39.67;;
11123;SDS011;5616;42.692;23.312;2022-11-09T09:55:18;41.03;;;29.93;;
11123;SDS011;5616;42.692;23.312;2022-11-09T09:57:52;40.87;;;28.40;;
11123;SDS011;5616;42.692;23.312;2022-11-09T10:00:21;37.37;;;26.43;;
11123;SDS011;5616;42.692;23.312;2022-11-09T10:02:51;34.50;;;27.00;;
11123;SDS011;5616;42.692;23.312;2022-11-09T10:05:19;35.57;;;26.80;;
11123;SDS011;5616;42.692;23.312;2022-11-09T10:07:56;36.57;;;26.33;;
11123;SDS011;5616;42.692;23.312;2022-11-09T10:10:36;38.77;;;28.33;;
11123;SDS011;5616;42.692;23.312;2022-11-09T10:13:21;34.60;;;26.67;;
11123;SDS011;5616;42.692;23.312;2022-11-09T10:16:05;53.40;;;32.97;;
11123;SDS011;5616;42.692;23.312;2022-11-09T10:18:45;32.93;;;25.33;;
11123;SDS011;5616;42.692;23.312;2022-11-09T10:21:38;34.77;;;26.10;;
11123;SDS011;5616;42.692;23.312;2022-11-09T10:24:16;34.57;;;24.80;;
11123;SDS011;5616;42.692;23.312;2022-11-09T10:26:55;34.07;;;25.43;;
11123;SDS011;5616;42.692;23.312;2022-11-09T10:29:23;42.97;;;28.70;;
11123;SDS011;5616;42.692;23.312;2022-11-09T10:31:52;40.73;;;28.63;;
11123;SDS011;5616;42.692;23.312;2022-11-09T10:34:22;35.27;;;25.63;;
11123;SDS011;5616;42.692;23.312;2022-11-09T10:36:55;36.23;;;24.57;;
11123;SDS011;5616;42.692;23.312;2022-11-09T10:39:28;38.60;;;26.23;;
11123;SDS011;5616;42.692;23.312;2022-11-09T10:42:23;46.50;;;30.00;;
11123;SDS011;5616;42.692;23.312;2022-11-09T10:45:13;32.77;;;24.60;;
11123;SDS011;5616;42.692;23.312;2022-11-09T10:48:02;36.23;;;23.63;;
11123;SDS011;5616;42.692;23.312;2022-11-09T10:50:51;29.00;;;22.47;;
11123;SDS011;5616;42.692;23.312;2022-11-09T10:53:36;31.63;;;23.33;;
11123;SDS011;5616;42.692;23.312;2022-11-09T10:56:21;29.60;;;23.50;;
11123;SDS011;5616;42.692;23.312;2022-11-09T11:05:30;29.60;;;22.93;;
11123;SDS011;5616;42.692;23.312;2022-11-09T11:08:20;30.67;;;24.70;;
11123;SDS011;5616;42.692;23.312;2022-11-09T11:14:18;30.80;;;23.40;;
11123;SDS011;5616;42.692;23.312;2022-11-09T11:17:17;29.30;;;22.80;;
11123;SDS011;5616;42.692;23.312;2022-11-09T11:20:21;29.97;;;23.40;;
11123;SDS011;5616;42.692;23.312;2022-11-09T11:23:10;27.60;;;22.17;;
11123;SDS011;5616;42.692;23.312;2022-11-09T11:26:08;28.27;;;22.50;;
11123;SDS011;5616;42.692;23.312;2022-11-09T11:29:05;30.10;;;21.90;;
11123;SDS011;5616;42.692;23.312;2022-11-09T11:31:56;29.27;;;22.17;;
11123;SDS011;5616;42.692;23.312;2022-11-09T11:34:42;30.23;;;21.07;;
11123;SDS011;5616;42.692;23.312;2022-11-09T11:37:31;26.83;;;20.60;;
11123;SDS011;5616;42.692;23.312;2022-11-09T11:40:27;29.30;;;21.50;;
11123;SDS011;5616;42.692;23.312;2022-11-09T11:43:26;31.10;;;20.83;;
11123;SDS011;5616;42.692;23.312;2022-11-09T11:46:20;28.77;;;21.63;;
11123;SDS011;5616;42.692;23.312;2022-11-09T11:49:26;25.83;;;20.33;;
11123;SDS011;5616;42.692;23.312;2022-11-09T11:52:33;24.80;;;20.37;;
11123;SDS011;5616;42.692;23.312;2022-11-09T11:55:45;25.63;;;21.07;;
11123;SDS011;5616;42.692;23.312;2022-11-09T11:58:42;25.23;;;20.47;;
11123;SDS011;5616;42.692;23.312;2022-11-09T12:01:46;27.40;;;21.67;;
11123;SDS011;5616;42.692;23.312;2022-11-09T12:04:49;28.17;;;22.17;;
11123;SDS011;5616;42.692;23.312;2022-11-09T12:07:52;24.53;;;21.03;;
11123;SDS011;5616;42.692;23.312;2022-11-09T12:10:49;24.70;;;21.70;;
11123;SDS011;5616;42.692;23.312;2022-11-09T12:13:54;30.17;;;21.57;;
11123;SDS011;5616;42.692;23.312;2022-11-09T12:16:48;29.07;;;22.70;;
11123;SDS011;5616;42.692;23.312;2022-11-09T12:19:45;28.87;;;21.83;;
11123;SDS011;5616;42.692;23.312;2022-11-09T12:22:44;26.47;;;20.77;;
11123;SDS011;5616;42.692;23.312;2022-11-09T12:25:44;28.13;;;21.97;;
11123;SDS011;5616;42.692;23.312;2022-11-09T12:28:43;27.53;;;21.47;;
11123;SDS011;5616;42.692;23.312;2022-11-09T12:31:47;29.07;;;21.67;;
11123;SDS011;5616;42.692;23.312;2022-11-09T12:34:40;28.83;;;21.60;;
11123;SDS011;5616;42.692;23.312;2022-11-09T12:37:32;29.13;;;21.27;;
11123;SDS011;5616;42.692;23.312;2022-11-09T12:40:21;29.80;;;21.57;;
11123;SDS011;5616;42.692;23.312;2022-11-09T12:43:11;27.23;;;21.47;;
11123;SDS011;5616;42.692;23.312;2022-11-09T12:45:59;29.33;;;21.60;;
11123;SDS011;5616;42.692;23.312;2022-11-09T12:48:49;28.77;;;22.13;;
11123;SDS011;5616;42.692;23.312;2022-11-09T12:51:34;25.53;;;21.20;;
11123;SDS011;5616;42.692;23.312;2022-11-09T12:54:21;27.80;;;21.57;;
11123;SDS011;5616;42.692;23.312;2022-11-09T12:57:08;44.57;;;29.43;;
11123;SDS011;5616;42.692;23.312;2022-11-09T12:59:57;58.33;;;35.03;;
11123;SDS011;5616;42.692;23.312;2022-11-09T13:02:50;54.53;;;32.50;;
11123;SDS011;5616;42.692;23.312;2022-11-09T13:05:39;34.73;;;23.80;;
11123;SDS011;5616;42.692;23.312;2022-11-09T13:08:26;33.30;;;22.37;;
11123;SDS011;5616;42.692;23.312;2022-11-09T13:11:20;31.30;;;20.83;;
11123;SDS011;5616;42.692;23.312;2022-11-09T13:14:25;27.67;;;20.30;;
11123;SDS011;5616;42.692;23.312;2022-11-09T13:20:47;28.00;;;20.50;;
11123;SDS011;5616;42.692;23.312;2022-11-09T13:23:34;31.23;;;20.83;;
11123;SDS011;5616;42.692;23.312;2022-11-09T13:26:23;33.13;;;21.97;;
11123;SDS011;5616;42.692;23.312;2022-11-09T13:29:32;30.53;;;21.37;;
11123;SDS011;5616;42.692;23.312;2022-11-09T13:32:32;31.83;;;22.23;;
11123;SDS011;5616;42.692;23.312;2022-11-09T13:42:24;29.63;;;20.53;;
11123;SDS011;5616;42.692;23.312;2022-11-09T13:45:16;27.20;;;21.07;;
11123;SDS011;5616;42.692;23.312;2022-11-09T13:48:32;31.80;;;21.83;;
11123;SDS011;5616;42.692;23.312;2022-11-09T13:51:23;30.50;;;21.17;;
11123;SDS011;5616;42.692;23.312;2022-11-09T13:54:29;27.00;;;20.93;;
11123;SDS011;5616;42.692;23.312;2022-11-09T13:57:15;24.73;;;21.57;;
11123;SDS011;5616;42.692;23.312;2022-11-09T14:00:01;27.30;;;21.23;;
11123;SDS011;5616;42.692;23.312;2022-11-09T14:02:52;25.37;;;20.30;;
11123;SDS011;5616;42.692;23.312;2022-11-09T14:05:38;28.73;;;21.17;;
11123;SDS011;5616;42.692;23.312;2022-11-09T14:08:26;25.87;;;20.20;;
11123;SDS011;5616;42.692;23.312;2022-11-09T14:14:42;27.27;;;20.90;;
11123;SDS011;5616;42.692;23.312;2022-11-09T14:17:54;29.70;;;21.03;;
11123;SDS011;5616;42.692;23.312;2022-11-09T14:20:56;28.80;;;21.87;;
11123;SDS011;5616;42.692;23.312;2022-11-09T14:24:01;28.07;;;19.67;;
11123;SDS011;5616;42.692;23.312;2022-11-09T14:27:00;27.77;;;20.93;;
11123;SDS011;5616;42.692;23.312;2022-11-09T14:29:49;24.27;;;20.03;;
11123;SDS011;5616;42.692;23.312;2022-11-09T14:32:36;28.53;;;20.87;;
11123;SDS011;5616;42.692;23.312;2022-11-09T14:35:22;23.93;;;20.37;;
11123;SDS011;5616;42.692;23.312;2022-11-09T14:38:14;25.93;;;20.07;;
11123;SDS011;5616;42.692;23.312;2022-11-09T14:41:03;27.07;;;19.80;;
11123;SDS011;5616;42.692;23.312;2022-11-09T14:43:48;29.00;;;20.10;;
11123;SDS011;5616;42.692;23.312;2022-11-09T14:46:34;27.27;;;20.43;;
11123;SDS011;5616;42.692;23.312;2022-11-09T14:49:20;31.13;;;20.30;;
11123;SDS011;5616;42.692;23.312;2022-11-09T14:52:07;28.60;;;21.17;;
11123;SDS011;5616;42.692;23.312;2022-11-09T14:54:56;27.90;;;21.50;;
11123;SDS011;5616;42.692;23.312;2022-11-09T14:57:44;29.70;;;21.27;;
11123;SDS011;5616;42.692;23.312;2022-11-09T15:00:32;31.10;;;22.87;;
11123;SDS011;5616;42.692;23.312;2022-11-09T15:03:25;33.47;;;23.13;;
11123;SDS011;5616;42.692;23.312;2022-11-09T15:06:13;30.60;;;24.13;;
11123;SDS011;5616;42.692;23.312;2022-11-09T15:09:00;30.37;;;23.53;;
11123;SDS011;5616;42.692;23.312;2022-11-09T15:11:49;34.40;;;23.23;;
11123;SDS011;5616;42.692;23.312;2022-11-09T15:14:36;29.47;;;22.73;;
11123;SDS011;5616;42.692;23.312;2022-11-09T15:17:24;29.30;;;22.23;;
11123;SDS011;5616;42.692;23.312;2022-11-09T15:20:25;33.17;;;22.73;;
11123;SDS011;5616;42.692;23.312;2022-11-09T15:23:20;29.60;;;22.53;;
11123;SDS011;5616;42.692;23.312;2022-11-09T15:26:23;34.38;;;25.00;;
11123;SDS011;5616;42.692;23.312;2022-11-09T15:29:28;31.60;;;22.77;;